createdAt,value
2023-05-22T00:00:04.756Z,13.69
2023-05-22T00:01:53.918Z,13.67
2023-05-22T00:03:40.369Z,13.66
2023-05-22T00:05:11.224Z,13.65
2023-05-22T00:06:45.901Z,13.64
2023-05-22T00:08:19.409Z,13.64
2023-05-22T00:10:04.378Z,13.62
2023-05-22T00:11:40.359Z,13.60
2023-05-22T00:13:25.855Z,13.58
2023-05-22T00:15:10.062Z,13.56
2023-05-22T00:16:45.710Z,13.55
2023-05-22T00:18:09.691Z,13.54
2023-05-22T00:19:45.188Z,13.53
2023-05-22T00:21:26.172Z,13.51
2023-05-22T00:23:02.411Z,13.51
2023-05-22T00:24:47.663Z,13.50
2023-05-22T00:26:35.160Z,13.47
2023-05-22T00:28:08.776Z,13.45
2023-05-22T00:29:42.026Z,13.44
2023-05-22T00:31:24.792Z,13.42
2023-05-22T00:32:58.547Z,13.40
2023-05-22T00:34:31.951Z,13.38
2023-05-22T00:35:54.665Z,13.37
2023-05-22T00:37:20.751Z,13.36
2023-05-22T00:38:42.588Z,13.36
2023-05-22T00:40:18.823Z,13.35
2023-05-22T00:41:42.515Z,13.33
2023-05-22T00:43:23.383Z,13.30
2023-05-22T00:45:08.376Z,13.29
2023-05-22T00:46:34.845Z,13.27
2023-05-22T00:48:08.480Z,13.25
2023-05-22T00:49:30.320Z,13.23
2023-05-22T00:51:06.209Z,13.21
2023-05-22T00:52:32.943Z,13.20
2023-05-22T00:54:14.004Z,13.18
2023-05-22T00:55:35.847Z,13.16
2023-05-22T00:57:00.749Z,13.13
2023-05-22T00:58:24.876Z,13.14
2023-05-22T00:59:59.724Z,13.13
2023-05-22T01:01:36.872Z,13.13
2023-05-22T01:03:21.930Z,13.11
2023-05-22T01:04:57.880Z,13.09
2023-05-22T01:06:39.673Z,13.08
2023-05-22T01:08:01.903Z,13.08
2023-05-22T01:09:28.818Z,13.08
2023-05-22T01:11:10.452Z,13.08
2023-05-22T01:12:44.375Z,13.08
2023-05-22T01:14:29.410Z,13.08
2023-05-22T01:16:14.802Z,13.08
2023-05-22T01:17:56.006Z,13.08
2023-05-22T01:19:42.636Z,13.09
2023-05-22T01:21:27.903Z,13.08
2023-05-22T01:23:03.384Z,13.08
2023-05-22T01:24:46.236Z,13.06
2023-05-22T01:26:31.594Z,13.07
2023-05-22T01:28:17.090Z,13.09
2023-05-22T01:29:50.627Z,13.10
2023-05-22T01:31:26.075Z,13.11
2023-05-22T01:32:59.937Z,13.10
2023-05-22T01:34:47.472Z,13.09
2023-05-22T01:36:22.543Z,13.09
2023-05-22T01:37:56.251Z,13.08
2023-05-22T01:39:30.077Z,13.08
2023-05-22T01:41:10.714Z,13.06
2023-05-22T01:42:44.275Z,13.05
2023-05-22T01:44:25.541Z,13.05
2023-05-22T01:45:50.307Z,13.06
2023-05-22T01:47:35.551Z,13.08
2023-05-22T01:49:16.500Z,13.10
2023-05-22T01:50:56.933Z,13.03
2023-05-22T01:52:55.837Z,13.04
2023-05-22T01:54:40.422Z,13.07
2023-05-22T01:56:17.028Z,13.05
2023-05-22T01:57:52.939Z,13.04
2023-05-22T01:59:26.190Z,13.04
2023-05-22T02:01:07.077Z,13.04
2023-05-22T02:02:53.421Z,13.04
2023-05-22T02:04:22.633Z,13.04
2023-05-22T02:05:56.530Z,13.02
2023-05-22T02:07:41.508Z,12.99
2023-05-22T02:09:13.053Z,12.98
2023-05-22T02:10:47.364Z,12.98
2023-05-22T02:12:32.781Z,12.97
2023-05-22T02:14:18.164Z,12.95
2023-05-22T02:15:51.588Z,12.92
2023-05-22T02:17:24.628Z,12.88
2023-05-22T02:18:46.738Z,12.86
2023-05-22T02:20:27.492Z,12.83
2023-05-22T02:22:02.108Z,12.80
2023-05-22T02:23:47.047Z,12.77
2023-05-22T02:25:21.279Z,12.74
2023-05-22T02:27:06.229Z,12.71
2023-05-22T02:28:51.271Z,12.68
2023-05-22T02:30:36.980Z,12.63
2023-05-22T02:32:20.176Z,12.59
2023-05-22T02:33:53.969Z,12.56
2023-05-22T02:35:39.572Z,12.55
2023-05-22T02:37:15.729Z,12.53
2023-05-22T02:39:10.685Z,12.51
2023-05-22T02:40:52.000Z,12.51
2023-05-22T02:42:16.574Z,12.51
2023-05-22T02:43:50.417Z,12.51
2023-05-22T02:45:23.595Z,12.50
2023-05-22T02:46:57.482Z,12.50
2023-05-22T02:48:44.849Z,12.49
2023-05-22T02:50:08.411Z,12.49
2023-05-22T02:51:41.934Z,12.48
2023-05-22T02:53:03.864Z,12.48
2023-05-22T02:54:37.495Z,12.46
2023-05-22T02:56:12.972Z,12.45
2023-05-22T02:57:46.486Z,12.43
2023-05-22T02:59:17.717Z,12.45
2023-05-22T03:00:47.082Z,12.46
2023-05-22T03:02:21.761Z,12.48
2023-05-22T03:03:50.834Z,12.49
2023-05-22T03:05:24.839Z,12.49
2023-05-22T03:06:58.223Z,12.50
2023-05-22T03:08:34.128Z,12.51
2023-05-22T03:10:08.925Z,12.52
2023-05-22T03:11:45.023Z,12.54
2023-05-22T03:13:28.953Z,12.56
2023-05-22T03:15:15.150Z,12.57
2023-05-22T03:17:00.212Z,12.59
2023-05-22T03:18:27.626Z,12.61
2023-05-22T03:20:04.910Z,12.66
2023-05-22T03:21:49.684Z,12.69
2023-05-22T03:23:33.408Z,12.73
2023-05-22T03:25:14.317Z,12.76
2023-05-22T03:27:00.238Z,12.80
2023-05-22T03:28:41.901Z,12.84
2023-05-22T03:30:22.953Z,12.86
2023-05-22T03:32:04.849Z,12.90
2023-05-22T03:33:38.329Z,12.95
2023-05-22T03:35:29.900Z,12.97
2023-05-22T03:37:22.422Z,13.01
2023-05-22T03:38:56.629Z,13.06
2023-05-22T03:40:42.261Z,13.10
2023-05-22T03:42:17.312Z,13.10
2023-05-22T03:44:02.883Z,13.16
2023-05-22T03:45:47.948Z,13.22
2023-05-22T03:47:35.482Z,13.28
2023-05-22T03:49:25.263Z,13.34
2023-05-22T03:51:14.869Z,13.40
2023-05-22T03:52:38.592Z,13.44
2023-05-22T03:54:07.458Z,13.48
2023-05-22T03:55:42.781Z,13.52
2023-05-22T03:57:25.058Z,13.52
2023-05-22T03:58:51.507Z,13.59
2023-05-22T04:00:42.406Z,13.62
2023-05-22T04:02:17.099Z,13.65
2023-05-22T04:03:58.320Z,13.69
2023-05-22T04:05:32.013Z,13.74
2023-05-22T04:06:53.926Z,13.77
2023-05-22T04:08:46.935Z,13.81
2023-05-22T04:10:22.451Z,13.86
2023-05-22T04:11:58.461Z,13.91
2023-05-22T04:13:31.918Z,13.96
2023-05-22T04:15:21.874Z,14.02
2023-05-22T04:16:57.475Z,14.09
2023-05-22T04:18:43.927Z,14.15
2023-05-22T04:20:17.970Z,14.22
2023-05-22T04:21:59.040Z,14.29
2023-05-22T04:23:52.567Z,14.35
2023-05-22T04:25:26.061Z,14.41
2023-05-22T04:27:07.047Z,14.46
2023-05-22T04:28:42.950Z,14.52
2023-05-22T04:30:32.941Z,14.58
2023-05-22T04:32:08.712Z,14.63
2023-05-22T04:33:39.931Z,14.69
2023-05-22T04:35:31.678Z,14.76
2023-05-22T04:37:13.501Z,14.85
2023-05-22T04:38:36.617Z,14.93
2023-05-22T04:40:19.067Z,14.98
2023-05-22T04:42:04.008Z,15.05
2023-05-22T04:43:50.327Z,15.12
2023-05-22T04:45:25.296Z,15.18
2023-05-22T04:46:59.769Z,15.24
2023-05-22T04:48:43.586Z,15.28
2023-05-22T04:50:24.304Z,15.34
2023-05-22T04:52:09.388Z,15.39
2023-05-22T04:53:33.542Z,15.42
2023-05-22T04:55:23.608Z,15.46
2023-05-22T04:56:53.267Z,15.50
2023-05-22T04:58:41.156Z,15.55
2023-05-22T05:00:27.643Z,15.60
2023-05-22T05:02:03.906Z,15.66
2023-05-22T05:03:40.127Z,15.71
2023-05-22T05:05:34.725Z,15.67
2023-05-22T05:07:05.030Z,15.79
2023-05-22T05:08:49.722Z,15.85
2023-05-22T05:10:23.167Z,15.93
2023-05-22T05:12:16.413Z,16.02
2023-05-22T05:14:01.997Z,16.09
2023-05-22T05:15:47.604Z,16.14
2023-05-22T05:17:29.838Z,16.14
2023-05-22T05:19:23.574Z,16.19
2023-05-22T05:20:45.740Z,16.25
2023-05-22T05:22:10.120Z,16.29
2023-05-22T05:23:43.271Z,16.35
2023-05-22T05:25:24.480Z,16.38
2023-05-22T05:27:06.055Z,16.42
2023-05-22T05:28:51.016Z,16.44
2023-05-22T05:30:31.930Z,16.45
2023-05-22T05:32:14.379Z,16.46
2023-05-22T05:33:58.019Z,16.46
2023-05-22T05:35:50.436Z,16.46
2023-05-22T05:37:26.006Z,16.45
2023-05-22T05:39:08.381Z,16.43
2023-05-22T05:40:45.421Z,16.41
2023-05-22T05:42:27.476Z,16.37
2023-05-22T05:44:04.269Z,16.36
2023-05-22T05:45:50.545Z,16.34
2023-05-22T05:47:12.080Z,16.36
2023-05-22T05:48:36.181Z,16.39
2023-05-22T05:50:21.331Z,16.43
2023-05-22T05:52:02.078Z,16.49
2023-05-22T05:53:36.963Z,16.58
2023-05-22T05:55:11.408Z,16.66
2023-05-22T05:56:57.109Z,16.76
2023-05-22T05:58:51.185Z,16.85
2023-05-22T06:00:43.923Z,16.97
2023-05-22T06:02:17.433Z,17.03
2023-05-22T06:04:06.079Z,17.11
2023-05-22T06:05:42.115Z,17.18
2023-05-22T06:07:15.628Z,17.26
2023-05-22T06:09:05.027Z,17.36
2023-05-22T06:10:27.456Z,17.45
2023-05-22T06:12:16.371Z,17.56
2023-05-22T06:14:03.162Z,17.68
2023-05-22T06:15:36.477Z,17.80
2023-05-22T06:17:30.328Z,17.89
2023-05-22T06:18:57.049Z,17.97
2023-05-22T06:20:44.838Z,18.02
2023-05-22T06:22:14.243Z,18.10
2023-05-22T06:23:59.907Z,18.23
2023-05-22T06:25:46.522Z,18.37
2023-05-22T06:27:31.438Z,18.50
2023-05-22T06:29:25.373Z,18.58
2023-05-22T06:31:10.439Z,18.68
2023-05-22T06:32:51.163Z,18.81
2023-05-22T06:34:35.978Z,18.91
2023-05-22T06:36:00.743Z,19.00
2023-05-22T06:37:43.175Z,19.09
2023-05-22T06:39:29.767Z,19.21
2023-05-22T06:41:48.086Z,19.31
2023-05-22T06:43:23.805Z,19.42
2023-05-22T06:45:04.304Z,19.47
2023-05-22T06:46:43.173Z,19.49
2023-05-22T06:48:09.549Z,19.49
2023-05-22T06:49:56.439Z,19.63
2023-05-22T06:51:32.002Z,19.69
2023-05-22T06:53:23.824Z,19.77
2023-05-22T06:55:04.228Z,19.85
2023-05-22T06:56:31.882Z,19.94
2023-05-22T06:58:08.873Z,20.04
2023-05-22T06:59:45.762Z,20.10
2023-05-22T07:01:30.188Z,20.18
2023-05-22T07:03:10.332Z,20.18
2023-05-22T07:04:46.351Z,20.21
2023-05-22T07:06:24.760Z,20.26
2023-05-22T07:08:01.051Z,20.32
2023-05-22T07:09:35.791Z,20.41
2023-05-22T07:11:10.101Z,20.51
2023-05-22T07:12:43.451Z,20.62
2023-05-22T07:14:19.130Z,20.68
2023-05-22T07:16:00.250Z,20.76
2023-05-22T07:17:24.870Z,20.81
2023-05-22T07:18:58.489Z,20.85
2023-05-22T07:20:48.701Z,20.92
2023-05-22T07:22:26.766Z,21.01
2023-05-22T07:24:11.965Z,21.09
2023-05-22T07:26:03.420Z,21.14
2023-05-22T07:27:39.692Z,21.19
2023-05-22T07:29:25.785Z,21.22
2023-05-22T07:31:12.342Z,21.29
2023-05-22T07:32:45.781Z,21.43
2023-05-22T07:34:19.476Z,21.44
2023-05-22T07:35:53.321Z,21.45
2023-05-22T07:37:28.928Z,21.47
2023-05-22T07:39:02.429Z,21.49
2023-05-22T07:40:47.383Z,21.49
2023-05-22T07:42:32.731Z,21.54
2023-05-22T07:43:59.791Z,21.60
2023-05-22T07:45:48.326Z,21.67
2023-05-22T07:47:38.732Z,21.77
2023-05-22T07:49:16.229Z,21.82
2023-05-22T07:50:51.696Z,21.82
2023-05-22T07:52:25.478Z,21.82
2023-05-22T07:53:54.490Z,21.87
2023-05-22T07:55:40.647Z,21.98
2023-05-22T07:57:33.158Z,22.07
2023-05-22T07:59:24.240Z,22.21
2023-05-22T08:01:05.839Z,22.34
2023-05-22T08:02:52.411Z,22.36
2023-05-22T08:04:37.828Z,22.43
2023-05-22T08:06:29.172Z,22.49
2023-05-22T08:08:03.731Z,22.51
2023-05-22T08:09:48.652Z,22.50
2023-05-22T08:11:40.448Z,22.58
2023-05-22T08:13:25.767Z,22.63
2023-05-22T08:15:18.115Z,22.64
2023-05-22T08:16:59.338Z,22.64
2023-05-22T08:18:40.765Z,22.67
2023-05-22T08:20:21.573Z,22.75
2023-05-22T08:21:58.041Z,22.75
2023-05-22T08:23:31.326Z,22.73
2023-05-22T08:25:05.109Z,22.72
2023-05-22T08:26:47.316Z,22.76
2023-05-22T08:28:32.256Z,22.76
2023-05-22T08:30:13.125Z,22.81
2023-05-22T08:31:58.433Z,22.78
2023-05-22T08:33:22.771Z,22.82
2023-05-22T08:34:46.862Z,22.90
2023-05-22T08:36:32.333Z,22.92
2023-05-22T08:38:05.846Z,22.84
2023-05-22T08:39:40.610Z,22.85
2023-05-22T08:41:25.136Z,22.90
2023-05-22T08:43:01.598Z,22.97
2023-05-22T08:44:27.803Z,23.02
2023-05-22T08:46:13.009Z,23.06
2023-05-22T08:47:58.388Z,23.10
2023-05-22T08:49:51.582Z,23.19
2023-05-22T08:51:45.788Z,23.26
2023-05-22T08:53:39.434Z,23.29
2023-05-22T08:55:12.605Z,23.32
2023-05-22T08:56:57.823Z,23.35
2023-05-22T08:58:31.324Z,23.34
2023-05-22T08:59:55.296Z,23.32
2023-05-22T09:01:17.101Z,23.36
2023-05-22T09:02:53.081Z,23.41
2023-05-22T09:04:36.670Z,23.43
2023-05-22T09:06:11.241Z,23.43
2023-05-22T09:07:33.018Z,23.46
2023-05-22T09:08:55.098Z,23.48
2023-05-22T09:10:36.831Z,23.50
2023-05-22T09:12:12.443Z,23.57
2023-05-22T09:13:45.900Z,23.61
2023-05-22T09:15:21.234Z,23.67
2023-05-22T09:17:02.104Z,23.68
2023-05-22T09:20:32.485Z,23.76
2023-05-22T09:22:07.835Z,23.86
2023-05-22T09:23:43.665Z,23.93
2023-05-22T09:25:07.889Z,23.97
2023-05-22T09:27:01.599Z,23.97
2023-05-22T09:28:25.397Z,24.01
2023-05-22T09:30:06.891Z,24.06
2023-05-22T09:31:42.474Z,24.11
2023-05-22T09:33:18.033Z,24.15
2023-05-22T09:34:51.850Z,24.19
2023-05-22T09:36:28.095Z,24.22
2023-05-22T09:38:11.429Z,24.23
2023-05-22T09:39:57.926Z,24.16
2023-05-22T09:41:34.190Z,24.14
2023-05-22T09:42:58.039Z,24.13
2023-05-22T09:44:20.087Z,24.17
2023-05-22T09:45:41.882Z,24.22
2023-05-22T09:47:17.856Z,24.35
2023-05-22T09:48:39.830Z,24.42
2023-05-22T09:50:14.004Z,24.44
2023-05-22T09:51:42.872Z,24.49
2023-05-22T09:53:27.925Z,24.56
2023-05-22T09:55:05.260Z,24.56
2023-05-22T09:56:38.681Z,24.59
2023-05-22T09:58:13.852Z,24.65
2023-05-22T09:59:42.914Z,24.68
2023-05-22T10:01:19.185Z,24.67
2023-05-22T10:02:55.051Z,24.56
2023-05-22T10:04:18.306Z,24.48
2023-05-22T10:05:42.409Z,24.53
2023-05-22T10:07:06.762Z,24.60
2023-05-22T10:08:28.954Z,24.66
2023-05-22T10:09:53.260Z,24.69
2023-05-22T10:11:17.182Z,24.70
2023-05-22T10:12:39.022Z,24.69
2023-05-22T10:14:08.898Z,24.65
2023-05-22T10:15:31.160Z,24.57
2023-05-22T10:17:13.109Z,24.56
2023-05-22T10:18:58.243Z,24.54
2023-05-22T10:20:39.917Z,24.56
2023-05-22T10:22:28.683Z,24.59
2023-05-22T10:23:52.942Z,24.56
2023-05-22T10:25:38.012Z,24.55
2023-05-22T10:27:19.335Z,24.62
2023-05-22T10:28:46.100Z,24.69
2023-05-22T18:54:46.260Z,17.79
2023-05-22T18:56:19.356Z,17.70
2023-05-22T18:58:04.290Z,17.61
2023-05-22T18:59:33.612Z,17.53
2023-05-22T19:01:08.328Z,17.46
2023-05-22T19:02:53.551Z,17.38
2023-05-22T19:04:38.207Z,17.28
2023-05-22T19:06:14.235Z,17.22
2023-05-22T19:07:50.135Z,17.14
2023-05-22T19:09:22.062Z,17.07
2023-05-22T19:10:55.560Z,17.01
2023-05-22T19:12:26.879Z,16.97
2023-05-22T19:14:01.691Z,16.93
2023-05-22T19:15:25.544Z,16.87
2023-05-22T19:17:01.696Z,16.86
2023-05-22T19:18:27.316Z,16.80
2023-05-22T19:20:09.966Z,16.80
2023-05-22T19:21:42.714Z,16.76
2023-05-22T19:23:06.715Z,16.72
2023-05-22T19:24:32.503Z,16.69
2023-05-22T19:26:14.002Z,16.66
2023-05-22T19:27:47.485Z,16.62
2023-05-22T19:29:34.826Z,16.58
2023-05-22T19:30:58.460Z,16.54
2023-05-22T19:32:26.259Z,16.50
2023-05-22T19:33:52.454Z,16.47
2023-05-22T19:35:14.966Z,16.42
2023-05-22T19:36:57.343Z,16.39
2023-05-22T19:38:23.376Z,16.34
2023-05-22T19:39:57.090Z,16.31
2023-05-22T19:41:22.778Z,16.27
2023-05-22T19:42:47.105Z,16.24
2023-05-22T19:44:11.279Z,16.21
2023-05-22T19:45:32.831Z,16.17
2023-05-22T19:47:01.860Z,16.13
2023-05-22T19:48:33.119Z,16.08
2023-05-22T19:50:06.741Z,16.03
2023-05-22T19:51:42.714Z,15.99
2023-05-22T19:53:07.161Z,15.94
2023-05-22T19:54:31.900Z,15.87
2023-05-22T19:56:02.118Z,15.86
2023-05-22T19:57:23.835Z,15.74
2023-05-22T19:58:45.767Z,15.76
2023-05-22T20:00:19.419Z,15.71
2023-05-22T20:01:40.915Z,15.66
2023-05-22T20:03:25.902Z,15.62
2023-05-22T20:05:20.171Z,15.59
2023-05-22T20:06:54.556Z,15.56
2023-05-22T20:08:18.078Z,15.54
2023-05-22T20:09:51.439Z,15.51
2023-05-22T20:11:26.136Z,15.48
2023-05-22T20:12:50.087Z,15.45
2023-05-22T20:14:11.862Z,15.41
2023-05-22T20:15:36.747Z,15.38
2023-05-22T20:17:22.184Z,15.34
2023-05-22T20:18:56.299Z,15.29
2023-05-22T20:20:19.489Z,15.26
2023-05-22T20:22:00.258Z,15.24
2023-05-22T20:23:24.585Z,15.21
2023-05-22T20:24:55.002Z,15.18
2023-05-22T20:26:40.119Z,15.15
2023-05-22T20:28:13.913Z,15.11
2023-05-22T20:30:07.551Z,15.08
2023-05-22T20:31:43.486Z,15.05
2023-05-22T20:33:37.310Z,15.00
2023-05-22T20:35:18.233Z,14.94
2023-05-22T20:36:42.817Z,14.91
2023-05-22T20:38:18.928Z,14.89
2023-05-22T20:39:45.040Z,14.87
2023-05-22T20:41:19.753Z,14.85
2023-05-22T20:42:44.241Z,14.80
2023-05-22T20:44:12.335Z,14.78
2023-05-22T20:45:47.995Z,14.75
2023-05-22T20:47:17.124Z,14.73
2023-05-22T20:48:50.489Z,14.71
2023-05-22T20:50:19.792Z,14.70
2023-05-22T20:51:43.699Z,14.69
2023-05-22T20:53:18.222Z,14.67
2023-05-22T20:54:39.836Z,14.64
2023-05-22T20:56:15.540Z,14.61
2023-05-22T20:57:46.292Z,14.58
2023-05-22T20:59:15.884Z,14.55
2023-05-22T21:00:42.052Z,14.52
2023-05-22T21:02:04.182Z,14.43
2023-05-22T21:03:35.541Z,14.45
2023-05-22T21:04:57.185Z,14.42
2023-05-22T21:06:33.752Z,14.40
2023-05-22T21:08:10.876Z,14.38
2023-05-22T21:09:40.148Z,14.31
2023-05-22T21:11:13.551Z,14.33
2023-05-22T21:12:46.922Z,14.29
2023-05-22T21:14:20.505Z,14.32
2023-05-22T21:15:42.616Z,14.30
2023-05-22T21:17:07.500Z,14.29
2023-05-22T21:18:29.114Z,14.29
2023-05-22T21:19:55.958Z,14.29
2023-05-22T21:21:20.010Z,14.28
2023-05-22T21:22:51.176Z,14.27
2023-05-22T21:24:20.694Z,14.19
2023-05-22T21:25:54.185Z,14.25
2023-05-22T21:27:35.775Z,14.24
2023-05-22T21:28:59.709Z,14.21
2023-05-22T21:30:29.758Z,14.18
2023-05-22T21:31:53.698Z,14.17
2023-05-22T21:33:15.876Z,14.13
2023-05-22T21:34:41.035Z,14.11
2023-05-22T21:36:07.689Z,14.09
2023-05-22T21:37:48.415Z,14.04
2023-05-22T21:39:17.901Z,14.03
2023-05-22T21:40:42.841Z,14.02
2023-05-22T21:42:19.025Z,14.00
2023-05-22T21:43:41.589Z,13.98
2023-05-22T21:45:11.296Z,13.95
2023-05-22T21:46:35.805Z,13.92
2023-05-22T21:48:09.728Z,13.89
2023-05-22T21:49:43.407Z,13.79
2023-05-22T21:51:07.914Z,13.86
2023-05-22T21:52:48.954Z,13.84
2023-05-22T21:54:11.020Z,13.82
2023-05-22T21:55:35.215Z,13.81
2023-05-22T21:56:57.366Z,13.79
2023-05-22T21:58:19.879Z,13.78
2023-05-22T21:59:53.039Z,13.76
2023-05-22T22:01:20.682Z,13.74
2023-05-22T22:03:06.995Z,13.66
2023-05-22T22:04:51.904Z,13.69
2023-05-22T22:06:13.685Z,13.67
2023-05-22T22:07:49.768Z,13.65
2023-05-22T22:09:12.196Z,13.65
2023-05-22T22:10:44.533Z,13.64
2023-05-22T22:12:06.556Z,13.62
2023-05-22T22:13:30.446Z,13.62
2023-05-22T22:14:54.735Z,13.60
2023-05-22T22:16:24.368Z,13.59
2023-05-22T22:17:47.411Z,13.57
2023-05-22T22:19:11.822Z,13.58
2023-05-22T22:20:45.119Z,13.58
2023-05-22T22:22:18.793Z,13.58
2023-05-22T22:23:40.631Z,13.57
2023-05-22T22:25:14.141Z,13.58
2023-05-22T22:26:47.952Z,13.57
2023-05-22T22:28:10.462Z,13.56
2023-05-22T22:29:46.847Z,13.56
2023-05-22T22:31:11.723Z,13.55
2023-05-22T22:32:35.963Z,13.53
2023-05-22T22:34:09.054Z,13.51
2023-05-22T22:35:54.013Z,13.50
2023-05-22T22:37:27.650Z,13.47
2023-05-22T22:38:49.456Z,13.45
2023-05-22T22:40:26.664Z,13.42
2023-05-22T22:41:51.049Z,13.40
2023-05-22T22:43:15.629Z,13.37
2023-05-22T22:44:46.700Z,13.37
2023-05-22T22:46:09.123Z,13.38
2023-05-22T22:47:31.882Z,13.38
2023-05-22T22:48:57.045Z,13.39
2023-05-22T22:50:21.625Z,13.39
2023-05-22T22:51:43.737Z,13.40
2023-05-22T22:53:21.009Z,13.40
2023-05-22T22:54:45.575Z,13.40
2023-05-22T22:56:17.935Z,13.41
2023-05-22T22:57:51.262Z,13.40
2023-05-22T22:59:24.709Z,13.40
2023-05-22T23:00:49.994Z,13.38
2023-05-22T23:02:22.404Z,13.37
2023-05-22T23:03:46.447Z,13.37
2023-05-22T23:05:27.851Z,13.36
2023-05-22T23:06:59.591Z,13.36
2023-05-22T23:08:23.947Z,13.34
2023-05-22T23:10:05.327Z,13.32
2023-05-22T23:11:39.194Z,13.31
2023-05-22T23:13:24.505Z,13.31
2023-05-22T23:14:55.755Z,13.32
2023-05-22T23:16:37.836Z,13.33
2023-05-22T23:18:23.585Z,13.34
2023-05-22T23:20:08.935Z,13.33
2023-05-22T23:21:45.396Z,13.33
2023-05-22T23:23:34.763Z,13.32
2023-05-22T23:25:20.088Z,13.32
2023-05-22T23:26:55.719Z,13.33
2023-05-22T23:28:37.750Z,13.33
2023-05-22T23:30:11.158Z,13.33
2023-05-22T23:31:56.294Z,13.34
2023-05-22T23:33:32.146Z,13.33
2023-05-22T23:35:26.270Z,13.31
2023-05-22T23:37:00.285Z,13.30
2023-05-22T23:38:35.731Z,13.28
2023-05-22T23:40:18.196Z,13.26
2023-05-22T23:41:54.157Z,13.24
2023-05-22T23:43:37.196Z,13.24
2023-05-22T23:45:06.486Z,13.22
2023-05-22T23:46:39.218Z,13.21
2023-05-22T23:48:08.031Z,13.18
2023-05-22T23:49:41.384Z,13.17
2023-05-22T23:51:05.213Z,13.15
2023-05-22T23:52:38.732Z,13.15
2023-05-22T23:54:00.494Z,13.14
2023-05-22T23:55:45.744Z,13.15
2023-05-22T23:57:23.644Z,13.14
2023-05-22T23:59:08.871Z,13.14
